Luke Air Force Base
KLUF : rendu visible

Aérodrome :











RETROUVEZ-NOUS SUR...

 
LOGIN :

S'inscrire | Disclaimer

   EN    FR    IT 

 









Légende :    VFR   VFR Marginal   IFR   IFR Intensif   IFR Très Intensif
Visi : 
Plafond : 
>= 8 km
>= 3000ft
5 à 8 km
1000 à 3000 ft
1500m à 5 km
500 à 1000 ft
800 à 1500m
200 à 500 ft
< 800m
< 200 ft
Symboles :   Orages  Brouillard  Fortes neiges  Fortes précipitations  Vent > 20 kt






- Altitude de l'aérodrome : 1085 ft


KLUF - Luke Air Force Base

DERNIER METAR :
  • 222158Z AUTO 00000KT 10SM CLR 18/06 A3008 RMK AO2 SLP182 T01800062 $

METARs EXPIRÉS :
  • 221958Z AUTO 01003KT 10SM CLR 17/07 A3011 RMK AO2 SLP194 T01720073 $

TAF AMD TAF KLUF
Valide du 22 à 15h jusqu'au 23 à 18h UTC


221507Z 2215/2318 VRB06KT 9999 SCT030 QNH3011INS
BECMG 2215/2216 28009KT 9999 FEW050 BKN200 QNH3010INS
BECMG 2305/2306 VRB06KT 9999 BKN200 QNH3012INS TX16/2222Z TN08/2314Z



MET'MAP, la Météo Aéronautique d'un coup d'oeil ! - Copyright ORBIFLY Décembre 2007 - Disclaimer

ORBIFLY MET'MAP TEAM :

Programmation & Développement : Alexandra Zaïnal
Conception & Développement : Baudouin d'Aumeries
Co-Programmation & Développement : Marc-Olivier Méhu
Soutien technique & logistique : Manuel Goepfert

Contact : metmap@orbifly.com




SOURCES & CREDITS :

   NOAA       Earth
Advisory